sensor_id;sensor_type;location;lat;lon;timestamp;P1;durP1;ratioP1;P2;durP2;ratioP2
10645;SDS011;5371;49.782;9.932;2023-03-04T00:01:51;17.97;;;8.60;;
10645;SDS011;5371;49.782;9.932;2023-03-04T00:04:18;18.30;;;9.23;;
10645;SDS011;5371;49.782;9.932;2023-03-04T00:06:45;19.20;;;9.47;;
10645;SDS011;5371;49.782;9.932;2023-03-04T00:09:14;21.37;;;10.23;;
10645;SDS011;5371;49.782;9.932;2023-03-04T00:11:41;18.50;;;9.33;;
10645;SDS011;5371;49.782;9.932;2023-03-04T00:14:08;19.00;;;9.70;;
10645;SDS011;5371;49.782;9.932;2023-03-04T00:16:34;16.93;;;9.07;;
10645;SDS011;5371;49.782;9.932;2023-03-04T00:19:01;18.13;;;9.37;;
10645;SDS011;5371;49.782;9.932;2023-03-04T00:21:29;19.63;;;9.30;;
10645;SDS011;5371;49.782;9.932;2023-03-04T00:23:56;19.17;;;9.83;;
10645;SDS011;5371;49.782;9.932;2023-03-04T00:26:24;18.33;;;9.53;;
10645;SDS011;5371;49.782;9.932;2023-03-04T00:28:51;17.93;;;9.77;;
10645;SDS011;5371;49.782;9.932;2023-03-04T00:31:19;16.80;;;9.43;;
10645;SDS011;5371;49.782;9.932;2023-03-04T00:33:46;17.83;;;9.27;;
10645;SDS011;5371;49.782;9.932;2023-03-04T00:36:13;17.57;;;9.20;;
10645;SDS011;5371;49.782;9.932;2023-03-04T00:38:40;19.07;;;9.57;;
10645;SDS011;5371;49.782;9.932;2023-03-04T00:41:07;16.93;;;9.73;;
10645;SDS011;5371;49.782;9.932;2023-03-04T00:43:35;18.13;;;9.67;;
10645;SDS011;5371;49.782;9.932;2023-03-04T00:46:02;19.33;;;9.87;;
10645;SDS011;5371;49.782;9.932;2023-03-04T00:48:30;20.93;;;10.57;;
10645;SDS011;5371;49.782;9.932;2023-03-04T00:50:57;19.33;;;10.03;;
10645;SDS011;5371;49.782;9.932;2023-03-04T00:53:24;20.57;;;9.77;;
10645;SDS011;5371;49.782;9.932;2023-03-04T00:55:51;19.63;;;10.27;;
10645;SDS011;5371;49.782;9.932;2023-03-04T00:58:18;20.47;;;10.27;;
10645;SDS011;5371;49.782;9.932;2023-03-04T01:00:46;19.80;;;10.43;;
10645;SDS011;5371;49.782;9.932;2023-03-04T01:03:13;20.57;;;10.77;;
10645;SDS011;5371;49.782;9.932;2023-03-04T01:05:40;21.00;;;10.83;;
10645;SDS011;5371;49.782;9.932;2023-03-04T01:08:07;22.70;;;10.20;;
10645;SDS011;5371;49.782;9.932;2023-03-04T01:10:34;20.93;;;10.90;;
10645;SDS011;5371;49.782;9.932;2023-03-04T01:13:01;20.57;;;10.23;;
10645;SDS011;5371;49.782;9.932;2023-03-04T01:15:28;21.13;;;10.90;;
10645;SDS011;5371;49.782;9.932;2023-03-04T01:17:56;21.17;;;11.20;;
10645;SDS011;5371;49.782;9.932;2023-03-04T01:20:23;20.30;;;10.80;;
10645;SDS011;5371;49.782;9.932;2023-03-04T01:22:51;21.60;;;11.30;;
10645;SDS011;5371;49.782;9.932;2023-03-04T01:25:17;21.17;;;11.37;;
10645;SDS011;5371;49.782;9.932;2023-03-04T01:27:45;22.27;;;11.27;;
10645;SDS011;5371;49.782;9.932;2023-03-04T01:30:12;23.73;;;11.63;;
10645;SDS011;5371;49.782;9.932;2023-03-04T01:32:42;25.43;;;12.30;;
10645;SDS011;5371;49.782;9.932;2023-03-04T01:35:11;26.10;;;12.83;;
10645;SDS011;5371;49.782;9.932;2023-03-04T01:37:38;21.07;;;11.60;;
10645;SDS011;5371;49.782;9.932;2023-03-04T01:40:06;22.97;;;12.13;;
10645;SDS011;5371;49.782;9.932;2023-03-04T01:42:36;20.87;;;11.30;;
10645;SDS011;5371;49.782;9.932;2023-03-04T01:45:05;23.23;;;11.90;;
10645;SDS011;5371;49.782;9.932;2023-03-04T01:47:33;22.80;;;11.77;;
10645;SDS011;5371;49.782;9.932;2023-03-04T01:50:02;23.67;;;12.20;;
10645;SDS011;5371;49.782;9.932;2023-03-04T01:52:37;20.97;;;11.27;;
10645;SDS011;5371;49.782;9.932;2023-03-04T01:55:09;22.57;;;11.73;;
10645;SDS011;5371;49.782;9.932;2023-03-04T01:57:44;22.17;;;11.53;;
10645;SDS011;5371;49.782;9.932;2023-03-04T02:00:19;24.23;;;12.23;;
10645;SDS011;5371;49.782;9.932;2023-03-04T02:02:49;23.43;;;12.40;;
10645;SDS011;5371;49.782;9.932;2023-03-04T02:05:18;22.57;;;11.60;;
10645;SDS011;5371;49.782;9.932;2023-03-04T02:07:49;22.37;;;11.43;;
10645;SDS011;5371;49.782;9.932;2023-03-04T02:10:17;24.23;;;11.80;;
10645;SDS011;5371;49.782;9.932;2023-03-04T02:12:45;24.23;;;12.17;;
10645;SDS011;5371;49.782;9.932;2023-03-04T02:15:12;25.60;;;11.93;;
10645;SDS011;5371;49.782;9.932;2023-03-04T02:17:39;23.73;;;11.70;;
10645;SDS011;5371;49.782;9.932;2023-03-04T02:20:11;20.50;;;12.07;;
10645;SDS011;5371;49.782;9.932;2023-03-04T02:22:45;24.30;;;12.33;;
10645;SDS011;5371;49.782;9.932;2023-03-04T02:25:22;20.80;;;10.97;;
10645;SDS011;5371;49.782;9.932;2023-03-04T02:27:56;23.83;;;12.63;;
10645;SDS011;5371;49.782;9.932;2023-03-04T02:30:23;23.83;;;12.67;;
10645;SDS011;5371;49.782;9.932;2023-03-04T02:32:50;25.07;;;12.80;;
10645;SDS011;5371;49.782;9.932;2023-03-04T02:35:18;25.20;;;12.90;;
10645;SDS011;5371;49.782;9.932;2023-03-04T02:37:46;23.37;;;12.77;;
10645;SDS011;5371;49.782;9.932;2023-03-04T02:40:14;26.97;;;13.37;;
10645;SDS011;5371;49.782;9.932;2023-03-04T02:42:44;25.73;;;13.80;;
10645;SDS011;5371;49.782;9.932;2023-03-04T02:45:43;24.57;;;13.50;;
10645;SDS011;5371;49.782;9.932;2023-03-04T02:48:12;25.70;;;13.83;;
10645;SDS011;5371;49.782;9.932;2023-03-04T02:50:42;25.67;;;13.63;;
10645;SDS011;5371;49.782;9.932;2023-03-04T02:53:11;29.10;;;14.13;;
10645;SDS011;5371;49.782;9.932;2023-03-04T02:55:40;27.20;;;14.40;;
10645;SDS011;5371;49.782;9.932;2023-03-04T02:58:09;24.57;;;13.30;;
10645;SDS011;5371;49.782;9.932;2023-03-04T03:00:38;24.50;;;13.73;;
10645;SDS011;5371;49.782;9.932;2023-03-04T03:03:06;29.17;;;14.73;;
10645;SDS011;5371;49.782;9.932;2023-03-04T03:05:34;25.77;;;14.37;;
10645;SDS011;5371;49.782;9.932;2023-03-04T03:08:03;27.40;;;14.97;;
10645;SDS011;5371;49.782;9.932;2023-03-04T03:10:31;26.33;;;14.50;;
10645;SDS011;5371;49.782;9.932;2023-03-04T03:12:58;28.10;;;14.53;;
10645;SDS011;5371;49.782;9.932;2023-03-04T03:15:25;23.60;;;13.73;;
10645;SDS011;5371;49.782;9.932;2023-03-04T03:17:55;25.23;;;14.00;;
10645;SDS011;5371;49.782;9.932;2023-03-04T03:20:22;23.00;;;13.13;;
10645;SDS011;5371;49.782;9.932;2023-03-04T03:22:50;26.97;;;13.17;;
10645;SDS011;5371;49.782;9.932;2023-03-04T03:25:17;20.60;;;12.43;;
10645;SDS011;5371;49.782;9.932;2023-03-04T03:27:44;21.70;;;12.70;;
10645;SDS011;5371;49.782;9.932;2023-03-04T03:30:13;23.97;;;13.80;;
10645;SDS011;5371;49.782;9.932;2023-03-04T03:32:41;21.97;;;12.50;;
10645;SDS011;5371;49.782;9.932;2023-03-04T03:35:10;21.27;;;13.20;;
10645;SDS011;5371;49.782;9.932;2023-03-04T03:37:38;23.93;;;13.10;;
10645;SDS011;5371;49.782;9.932;2023-03-04T03:40:06;23.17;;;12.57;;
10645;SDS011;5371;49.782;9.932;2023-03-04T03:42:34;24.37;;;13.20;;
10645;SDS011;5371;49.782;9.932;2023-03-04T03:45:04;23.27;;;13.83;;
10645;SDS011;5371;49.782;9.932;2023-03-04T03:47:31;23.80;;;13.13;;
10645;SDS011;5371;49.782;9.932;2023-03-04T03:49:58;22.83;;;13.13;;
10645;SDS011;5371;49.782;9.932;2023-03-04T03:52:26;24.17;;;13.50;;
10645;SDS011;5371;49.782;9.932;2023-03-04T03:54:53;25.53;;;12.90;;
10645;SDS011;5371;49.782;9.932;2023-03-04T03:57:20;22.60;;;12.83;;
10645;SDS011;5371;49.782;9.932;2023-03-04T03:59:49;24.83;;;12.70;;
10645;SDS011;5371;49.782;9.932;2023-03-04T04:02:16;24.00;;;12.57;;
10645;SDS011;5371;49.782;9.932;2023-03-04T04:04:43;21.63;;;12.50;;
10645;SDS011;5371;49.782;9.932;2023-03-04T04:07:10;24.23;;;13.33;;
10645;SDS011;5371;49.782;9.932;2023-03-04T04:09:38;25.03;;;12.50;;
10645;SDS011;5371;49.782;9.932;2023-03-04T04:12:05;22.40;;;12.03;;
10645;SDS011;5371;49.782;9.932;2023-03-04T04:14:33;23.10;;;12.53;;
10645;SDS011;5371;49.782;9.932;2023-03-04T04:17:00;21.40;;;11.40;;
10645;SDS011;5371;49.782;9.932;2023-03-04T04:19:27;23.30;;;11.87;;
10645;SDS011;5371;49.782;9.932;2023-03-04T04:21:54;22.57;;;12.17;;
10645;SDS011;5371;49.782;9.932;2023-03-04T04:24:21;26.87;;;13.63;;
10645;SDS011;5371;49.782;9.932;2023-03-04T04:26:50;23.63;;;12.33;;
10645;SDS011;5371;49.782;9.932;2023-03-04T04:29:16;23.30;;;12.13;;
10645;SDS011;5371;49.782;9.932;2023-03-04T04:31:43;23.93;;;13.03;;
10645;SDS011;5371;49.782;9.932;2023-03-04T04:34:11;22.57;;;12.73;;
10645;SDS011;5371;49.782;9.932;2023-03-04T04:36:38;24.33;;;12.87;;
10645;SDS011;5371;49.782;9.932;2023-03-04T04:39:04;24.43;;;12.73;;
10645;SDS011;5371;49.782;9.932;2023-03-04T04:41:37;21.13;;;12.27;;
10645;SDS011;5371;49.782;9.932;2023-03-04T04:44:07;22.90;;;12.83;;
10645;SDS011;5371;49.782;9.932;2023-03-04T04:46:35;22.13;;;12.57;;
10645;SDS011;5371;49.782;9.932;2023-03-04T04:49:02;21.60;;;12.70;;
10645;SDS011;5371;49.782;9.932;2023-03-04T04:51:29;26.10;;;13.43;;
10645;SDS011;5371;49.782;9.932;2023-03-04T04:53:57;25.33;;;12.73;;
10645;SDS011;5371;49.782;9.932;2023-03-04T04:56:24;25.43;;;13.53;;
10645;SDS011;5371;49.782;9.932;2023-03-04T04:58:52;21.27;;;12.77;;
10645;SDS011;5371;49.782;9.932;2023-03-04T05:01:23;24.27;;;13.20;;
10645;SDS011;5371;49.782;9.932;2023-03-04T05:03:51;22.67;;;12.43;;
10645;SDS011;5371;49.782;9.932;2023-03-04T05:06:19;21.87;;;13.00;;
10645;SDS011;5371;49.782;9.932;2023-03-04T05:08:47;22.73;;;12.20;;
10645;SDS011;5371;49.782;9.932;2023-03-04T05:11:15;22.40;;;12.00;;
10645;SDS011;5371;49.782;9.932;2023-03-04T05:13:43;22.07;;;12.30;;
10645;SDS011;5371;49.782;9.932;2023-03-04T05:16:10;22.27;;;12.23;;
10645;SDS011;5371;49.782;9.932;2023-03-04T05:18:39;20.93;;;10.93;;
10645;SDS011;5371;49.782;9.932;2023-03-04T05:21:06;19.63;;;12.30;;
10645;SDS011;5371;49.782;9.932;2023-03-04T05:23:34;21.90;;;12.70;;
10645;SDS011;5371;49.782;9.932;2023-03-04T05:26:02;20.10;;;11.70;;
10645;SDS011;5371;49.782;9.932;2023-03-04T05:28:31;22.30;;;11.60;;
10645;SDS011;5371;49.782;9.932;2023-03-04T05:30:59;20.17;;;11.63;;
10645;SDS011;5371;49.782;9.932;2023-03-04T05:33:26;20.80;;;11.83;;
10645;SDS011;5371;49.782;9.932;2023-03-04T05:35:56;22.07;;;12.80;;
10645;SDS011;5371;49.782;9.932;2023-03-04T05:38:23;20.03;;;11.53;;
10645;SDS011;5371;49.782;9.932;2023-03-04T05:40:54;22.80;;;11.90;;
10645;SDS011;5371;49.782;9.932;2023-03-04T05:43:22;22.00;;;12.33;;
10645;SDS011;5371;49.782;9.932;2023-03-04T05:45:50;22.33;;;12.93;;
10645;SDS011;5371;49.782;9.932;2023-03-04T05:48:17;19.73;;;10.83;;
10645;SDS011;5371;49.782;9.932;2023-03-04T05:50:44;20.83;;;12.47;;
10645;SDS011;5371;49.782;9.932;2023-03-04T05:53:13;24.37;;;13.00;;
10645;SDS011;5371;49.782;9.932;2023-03-04T05:55:39;19.67;;;12.27;;
10645;SDS011;5371;49.782;9.932;2023-03-04T05:58:11;22.37;;;12.13;;
10645;SDS011;5371;49.782;9.932;2023-03-04T06:00:38;21.53;;;12.50;;
10645;SDS011;5371;49.782;9.932;2023-03-04T06:03:05;22.03;;;12.53;;
10645;SDS011;5371;49.782;9.932;2023-03-04T06:05:32;19.93;;;11.40;;
10645;SDS011;5371;49.782;9.932;2023-03-04T06:07:59;22.17;;;12.37;;
10645;SDS011;5371;49.782;9.932;2023-03-04T06:10:27;19.37;;;12.00;;
10645;SDS011;5371;49.782;9.932;2023-03-04T06:12:54;19.67;;;11.80;;
10645;SDS011;5371;49.782;9.932;2023-03-04T06:15:21;20.57;;;11.90;;
10645;SDS011;5371;49.782;9.932;2023-03-04T06:17:48;20.40;;;12.20;;
10645;SDS011;5371;49.782;9.932;2023-03-04T06:20:15;21.40;;;12.00;;
10645;SDS011;5371;49.782;9.932;2023-03-04T06:22:42;22.67;;;11.87;;
10645;SDS011;5371;49.782;9.932;2023-03-04T06:25:09;21.07;;;12.07;;
10645;SDS011;5371;49.782;9.932;2023-03-04T06:27:38;21.30;;;12.33;;
10645;SDS011;5371;49.782;9.932;2023-03-04T06:30:05;22.20;;;12.20;;
10645;SDS011;5371;49.782;9.932;2023-03-04T06:32:36;19.63;;;11.20;;
10645;SDS011;5371;49.782;9.932;2023-03-04T06:35:03;21.03;;;12.23;;
10645;SDS011;5371;49.782;9.932;2023-03-04T06:37:30;20.03;;;11.40;;
10645;SDS011;5371;49.782;9.932;2023-03-04T06:39:57;19.57;;;11.80;;
10645;SDS011;5371;49.782;9.932;2023-03-04T06:42:24;19.20;;;11.73;;
10645;SDS011;5371;49.782;9.932;2023-03-04T06:44:53;17.93;;;11.17;;
10645;SDS011;5371;49.782;9.932;2023-03-04T06:47:20;20.43;;;10.73;;
10645;SDS011;5371;49.782;9.932;2023-03-04T06:49:47;19.23;;;11.63;;
10645;SDS011;5371;49.782;9.932;2023-03-04T06:52:14;18.57;;;11.67;;
10645;SDS011;5371;49.782;9.932;2023-03-04T06:54:41;17.97;;;11.37;;
10645;SDS011;5371;49.782;9.932;2023-03-04T06:57:08;19.67;;;11.93;;
10645;SDS011;5371;49.782;9.932;2023-03-04T06:59:35;19.23;;;12.10;;
10645;SDS011;5371;49.782;9.932;2023-03-04T07:02:03;19.40;;;11.93;;
10645;SDS011;5371;49.782;9.932;2023-03-04T07:04:30;17.90;;;11.63;;
10645;SDS011;5371;49.782;9.932;2023-03-04T07:06:57;17.60;;;10.80;;
10645;SDS011;5371;49.782;9.932;2023-03-04T07:09:24;17.07;;;10.83;;
10645;SDS011;5371;49.782;9.932;2023-03-04T07:11:51;19.27;;;11.30;;
10645;SDS011;5371;49.782;9.932;2023-03-04T07:14:18;18.77;;;11.37;;
10645;SDS011;5371;49.782;9.932;2023-03-04T07:16:45;18.77;;;11.40;;
10645;SDS011;5371;49.782;9.932;2023-03-04T07:19:14;17.20;;;10.70;;
10645;SDS011;5371;49.782;9.932;2023-03-04T07:21:41;20.10;;;12.43;;
10645;SDS011;5371;49.782;9.932;2023-03-04T07:24:08;21.23;;;11.50;;
10645;SDS011;5371;49.782;9.932;2023-03-04T07:26:35;16.97;;;11.50;;
10645;SDS011;5371;49.782;9.932;2023-03-04T07:29:02;19.37;;;11.43;;
10645;SDS011;5371;49.782;9.932;2023-03-04T07:31:30;20.33;;;11.93;;
10645;SDS011;5371;49.782;9.932;2023-03-04T07:33:58;17.73;;;11.73;;
10645;SDS011;5371;49.782;9.932;2023-03-04T07:36:28;16.07;;;10.90;;
10645;SDS011;5371;49.782;9.932;2023-03-04T07:38:56;19.30;;;11.97;;
10645;SDS011;5371;49.782;9.932;2023-03-04T07:41:23;19.20;;;11.10;;
10645;SDS011;5371;49.782;9.932;2023-03-04T07:43:52;16.30;;;10.87;;
10645;SDS011;5371;49.782;9.932;2023-03-04T07:46:19;17.07;;;11.60;;
10645;SDS011;5371;49.782;9.932;2023-03-04T07:48:46;17.50;;;11.73;;
10645;SDS011;5371;49.782;9.932;2023-03-04T07:51:13;15.67;;;10.53;;
10645;SDS011;5371;49.782;9.932;2023-03-04T07:53:44;17.63;;;10.93;;
10645;SDS011;5371;49.782;9.932;2023-03-04T07:56:13;18.77;;;11.77;;
10645;SDS011;5371;49.782;9.932;2023-03-04T07:58:41;19.63;;;10.83;;
10645;SDS011;5371;49.782;9.932;2023-03-04T08:01:10;18.47;;;11.30;;
10645;SDS011;5371;49.782;9.932;2023-03-04T08:03:38;15.13;;;10.67;;
10645;SDS011;5371;49.782;9.932;2023-03-04T08:06:06;18.30;;;11.33;;
10645;SDS011;5371;49.782;9.932;2023-03-04T08:08:34;20.73;;;11.17;;
10645;SDS011;5371;49.782;9.932;2023-03-04T08:11:04;20.27;;;11.57;;
10645;SDS011;5371;49.782;9.932;2023-03-04T08:13:32;19.27;;;11.43;;
10645;SDS011;5371;49.782;9.932;2023-03-04T08:16:00;17.37;;;11.07;;
10645;SDS011;5371;49.782;9.932;2023-03-04T08:18:27;16.73;;;11.00;;
10645;SDS011;5371;49.782;9.932;2023-03-04T08:20:54;16.20;;;11.10;;
10645;SDS011;5371;49.782;9.932;2023-03-04T08:23:21;18.00;;;10.83;;
10645;SDS011;5371;49.782;9.932;2023-03-04T08:25:48;17.80;;;10.80;;
10645;SDS011;5371;49.782;9.932;2023-03-04T08:28:17;16.50;;;11.20;;
10645;SDS011;5371;49.782;9.932;2023-03-04T08:30:50;15.63;;;10.73;;
10645;SDS011;5371;49.782;9.932;2023-03-04T08:33:18;17.10;;;11.53;;
10645;SDS011;5371;49.782;9.932;2023-03-04T08:35:45;17.90;;;11.40;;
10645;SDS011;5371;49.782;9.932;2023-03-04T08:38:12;18.30;;;11.23;;
10645;SDS011;5371;49.782;9.932;2023-03-04T08:40:39;14.93;;;10.37;;
10645;SDS011;5371;49.782;9.932;2023-03-04T08:43:06;19.10;;;10.70;;
10645;SDS011;5371;49.782;9.932;2023-03-04T08:45:36;18.40;;;11.23;;
10645;SDS011;5371;49.782;9.932;2023-03-04T08:48:02;16.87;;;10.63;;
10645;SDS011;5371;49.782;9.932;2023-03-04T08:50:30;18.03;;;10.20;;
10645;SDS011;5371;49.782;9.932;2023-03-04T08:52:57;17.03;;;11.40;;
10645;SDS011;5371;49.782;9.932;2023-03-04T08:55:24;17.40;;;10.73;;
10645;SDS011;5371;49.782;9.932;2023-03-04T08:57:54;15.20;;;10.60;;
10645;SDS011;5371;49.782;9.932;2023-03-04T09:00:21;18.30;;;10.57;;
10645;SDS011;5371;49.782;9.932;2023-03-04T09:02:50;18.30;;;10.83;;
10645;SDS011;5371;49.782;9.932;2023-03-04T09:05:17;17.57;;;10.70;;
10645;SDS011;5371;49.782;9.932;2023-03-04T09:07:44;18.73;;;11.00;;
10645;SDS011;5371;49.782;9.932;2023-03-04T09:10:11;15.73;;;10.07;;
10645;SDS011;5371;49.782;9.932;2023-03-04T09:12:38;18.40;;;9.40;;
10645;SDS011;5371;49.782;9.932;2023-03-04T09:15:06;20.77;;;10.77;;
10645;SDS011;5371;49.782;9.932;2023-03-04T09:17:34;14.73;;;9.47;;
10645;SDS011;5371;49.782;9.932;2023-03-04T09:20:02;18.03;;;10.07;;
10645;SDS011;5371;49.782;9.932;2023-03-04T09:22:33;16.33;;;10.07;;
10645;SDS011;5371;49.782;9.932;2023-03-04T09:25:00;16.63;;;10.37;;
10645;SDS011;5371;49.782;9.932;2023-03-04T09:27:26;17.73;;;10.20;;
10645;SDS011;5371;49.782;9.932;2023-03-04T09:29:54;17.80;;;10.53;;
10645;SDS011;5371;49.782;9.932;2023-03-04T09:32:21;14.57;;;9.40;;
10645;SDS011;5371;49.782;9.932;2023-03-04T09:34:48;15.27;;;9.43;;
10645;SDS011;5371;49.782;9.932;2023-03-04T09:37:16;14.73;;;10.23;;
10645;SDS011;5371;49.782;9.932;2023-03-04T09:39:46;15.80;;;10.43;;
10645;SDS011;5371;49.782;9.932;2023-03-04T09:42:16;20.17;;;10.63;;
10645;SDS011;5371;49.782;9.932;2023-03-04T09:44:51;18.50;;;10.17;;
10645;SDS011;5371;49.782;9.932;2023-03-04T09:47:20;15.93;;;9.77;;
10645;SDS011;5371;49.782;9.932;2023-03-04T09:49:51;17.83;;;9.37;;
10645;SDS011;5371;49.782;9.932;2023-03-04T09:52:27;15.67;;;9.90;;
10645;SDS011;5371;49.782;9.932;2023-03-04T09:55:04;17.97;;;9.90;;
10645;SDS011;5371;49.782;9.932;2023-03-04T09:57:49;16.60;;;9.93;;
10645;SDS011;5371;49.782;9.932;2023-03-04T10:00:20;17.53;;;9.57;;
10645;SDS011;5371;49.782;9.932;2023-03-04T10:05:37;18.67;;;10.00;;
10645;SDS011;5371;49.782;9.932;2023-03-04T10:08:14;18.20;;;10.50;;
10645;SDS011;5371;49.782;9.932;2023-03-04T10:10:52;16.33;;;10.27;;
10645;SDS011;5371;49.782;9.932;2023-03-04T10:13:23;14.77;;;9.97;;
10645;SDS011;5371;49.782;9.932;2023-03-04T10:15:56;14.33;;;9.60;;
10645;SDS011;5371;49.782;9.932;2023-03-04T10:18:27;17.63;;;8.77;;
10645;SDS011;5371;49.782;9.932;2023-03-04T10:21:00;19.37;;;9.50;;
10645;SDS011;5371;49.782;9.932;2023-03-04T10:23:30;18.90;;;9.53;;
10645;SDS011;5371;49.782;9.932;2023-03-04T10:25:59;19.67;;;10.40;;
10645;SDS011;5371;49.782;9.932;2023-03-04T10:28:35;17.80;;;10.67;;
10645;SDS011;5371;49.782;9.932;2023-03-04T10:31:04;20.47;;;9.53;;
10645;SDS011;5371;49.782;9.932;2023-03-04T10:33:38;17.37;;;9.50;;
10645;SDS011;5371;49.782;9.932;2023-03-04T10:36:13;19.83;;;9.77;;
10645;SDS011;5371;49.782;9.932;2023-03-04T10:38:56;13.93;;;9.40;;
10645;SDS011;5371;49.782;9.932;2023-03-04T10:41:25;14.93;;;9.37;;
10645;SDS011;5371;49.782;9.932;2023-03-04T10:43:59;18.70;;;10.00;;
10645;SDS011;5371;49.782;9.932;2023-03-04T10:46:27;17.63;;;9.50;;
10645;SDS011;5371;49.782;9.932;2023-03-04T10:48:54;18.13;;;10.33;;
10645;SDS011;5371;49.782;9.932;2023-03-04T10:51:22;17.97;;;9.93;;
10645;SDS011;5371;49.782;9.932;2023-03-04T10:53:50;15.93;;;8.50;;
10645;SDS011;5371;49.782;9.932;2023-03-04T10:56:37;16.17;;;9.27;;
10645;SDS011;5371;49.782;9.932;2023-03-04T10:59:24;17.30;;;9.40;;
10645;SDS011;5371;49.782;9.932;2023-03-04T11:01:56;19.13;;;8.67;;
10645;SDS011;5371;49.782;9.932;2023-03-04T11:04:24;17.63;;;8.93;;
10645;SDS011;5371;49.782;9.932;2023-03-04T11:06:52;18.00;;;8.40;;
10645;SDS011;5371;49.782;9.932;2023-03-04T11:09:20;20.07;;;7.40;;
10645;SDS011;5371;49.782;9.932;2023-03-04T11:11:51;16.77;;;7.90;;
10645;SDS011;5371;49.782;9.932;2023-03-04T11:14:20;16.00;;;8.03;;
10645;SDS011;5371;49.782;9.932;2023-03-04T11:16:54;19.17;;;8.13;;
10645;SDS011;5371;49.782;9.932;2023-03-04T11:19:22;13.43;;;7.43;;
10645;SDS011;5371;49.782;9.932;2023-03-04T11:21:53;18.20;;;7.43;;
10645;SDS011;5371;49.782;9.932;2023-03-04T11:24:23;17.60;;;7.57;;
10645;SDS011;5371;49.782;9.932;2023-03-04T11:26:55;13.60;;;7.30;;
10645;SDS011;5371;49.782;9.932;2023-03-04T11:29:29;16.60;;;7.50;;
10645;SDS011;5371;49.782;9.932;2023-03-04T11:32:02;16.20;;;7.50;;
10645;SDS011;5371;49.782;9.932;2023-03-04T11:34:36;15.27;;;7.50;;
10645;SDS011;5371;49.782;9.932;2023-03-04T11:37:09;19.77;;;7.93;;
10645;SDS011;5371;49.782;9.932;2023-03-04T11:39:41;15.87;;;7.43;;
10645;SDS011;5371;49.782;9.932;2023-03-04T11:42:16;16.97;;;7.20;;
10645;SDS011;5371;49.782;9.932;2023-03-04T11:44:49;14.60;;;7.30;;
10645;SDS011;5371;49.782;9.932;2023-03-04T11:47:26;19.83;;;7.10;;
10645;SDS011;5371;49.782;9.932;2023-03-04T11:50:08;17.77;;;7.53;;
10645;SDS011;5371;49.782;9.932;2023-03-04T11:53:11;15.07;;;6.87;;
10645;SDS011;5371;49.782;9.932;2023-03-04T11:55:59;18.33;;;7.63;;
10645;SDS011;5371;49.782;9.932;2023-03-04T11:58:40;13.90;;;6.80;;
10645;SDS011;5371;49.782;9.932;2023-03-04T12:01:21;15.00;;;7.50;;
10645;SDS011;5371;49.782;9.932;2023-03-04T12:03:59;17.77;;;7.13;;
10645;SDS011;5371;49.782;9.932;2023-03-04T12:06:41;20.07;;;7.77;;
10645;SDS011;5371;49.782;9.932;2023-03-04T12:09:18;16.00;;;6.57;;
10645;SDS011;5371;49.782;9.932;2023-03-04T12:11:57;12.10;;;6.63;;
10645;SDS011;5371;49.782;9.932;2023-03-04T12:14:38;16.70;;;6.77;;
10645;SDS011;5371;49.782;9.932;2023-03-04T12:20:02;15.63;;;7.17;;
10645;SDS011;5371;49.782;9.932;2023-03-04T12:22:49;15.50;;;6.70;;
10645;SDS011;5371;49.782;9.932;2023-03-04T12:25:33;15.60;;;6.47;;
10645;SDS011;5371;49.782;9.932;2023-03-04T12:28:17;13.67;;;6.43;;
10645;SDS011;5371;49.782;9.932;2023-03-04T12:31:03;23.87;;;7.00;;
10645;SDS011;5371;49.782;9.932;2023-03-04T12:33:51;12.83;;;6.33;;
10645;SDS011;5371;49.782;9.932;2023-03-04T12:36:27;16.33;;;6.70;;
10645;SDS011;5371;49.782;9.932;2023-03-04T12:39:00;17.23;;;6.37;;
10645;SDS011;5371;49.782;9.932;2023-03-04T12:41:42;17.83;;;6.47;;
10645;SDS011;5371;49.782;9.932;2023-03-04T12:44:15;12.03;;;5.70;;
10645;SDS011;5371;49.782;9.932;2023-03-04T12:46:47;12.23;;;6.03;;
10645;SDS011;5371;49.782;9.932;2023-03-04T12:49:48;11.87;;;5.67;;
10645;SDS011;5371;49.782;9.932;2023-03-04T12:52:27;12.40;;;5.73;;
10645;SDS011;5371;49.782;9.932;2023-03-04T12:55:03;12.17;;;5.23;;
10645;SDS011;5371;49.782;9.932;2023-03-04T12:57:35;16.33;;;5.50;;
10645;SDS011;5371;49.782;9.932;2023-03-04T13:00:07;13.47;;;5.40;;
10645;SDS011;5371;49.782;9.932;2023-03-04T13:02:58;12.60;;;5.57;;
10645;SDS011;5371;49.782;9.932;2023-03-04T13:05:41;14.47;;;6.00;;
10645;SDS011;5371;49.782;9.932;2023-03-04T13:08:22;11.87;;;6.30;;
10645;SDS011;5371;49.782;9.932;2023-03-04T13:10:59;18.23;;;6.93;;
10645;SDS011;5371;49.782;9.932;2023-03-04T13:13:35;13.20;;;6.67;;
10645;SDS011;5371;49.782;9.932;2023-03-04T13:16:05;15.10;;;7.13;;
10645;SDS011;5371;49.782;9.932;2023-03-04T13:18:54;13.23;;;6.53;;
10645;SDS011;5371;49.782;9.932;2023-03-04T13:21:22;13.80;;;7.13;;
10645;SDS011;5371;49.782;9.932;2023-03-04T13:23:50;17.97;;;7.47;;
10645;SDS011;5371;49.782;9.932;2023-03-04T13:26:20;17.10;;;7.00;;
10645;SDS011;5371;49.782;9.932;2023-03-04T13:28:53;14.13;;;6.53;;
10645;SDS011;5371;49.782;9.932;2023-03-04T13:34:44;15.57;;;7.10;;
10645;SDS011;5371;49.782;9.932;2023-03-04T13:37:25;16.93;;;7.10;;
10645;SDS011;5371;49.782;9.932;2023-03-04T13:45:53;15.90;;;6.60;;
10645;SDS011;5371;49.782;9.932;2023-03-04T13:48:31;18.00;;;6.13;;
10645;SDS011;5371;49.782;9.932;2023-03-04T13:51:03;14.77;;;6.50;;
10645;SDS011;5371;49.782;9.932;2023-03-04T13:53:40;12.37;;;6.73;;
10645;SDS011;5371;49.782;9.932;2023-03-04T13:59:00;13.30;;;6.93;;
10645;SDS011;5371;49.782;9.932;2023-03-04T14:01:56;13.77;;;6.90;;
10645;SDS011;5371;49.782;9.932;2023-03-04T14:04:27;13.00;;;6.30;;
10645;SDS011;5371;49.782;9.932;2023-03-04T14:06:58;18.60;;;6.20;;
10645;SDS011;5371;49.782;9.932;2023-03-04T14:09:26;14.93;;;5.90;;
10645;SDS011;5371;49.782;9.932;2023-03-04T14:11:56;15.63;;;6.20;;
10645;SDS011;5371;49.782;9.932;2023-03-04T14:14:27;13.97;;;6.13;;
10645;SDS011;5371;49.782;9.932;2023-03-04T14:16:57;13.33;;;5.93;;
10645;SDS011;5371;49.782;9.932;2023-03-04T14:19:27;14.30;;;5.57;;
10645;SDS011;5371;49.782;9.932;2023-03-04T14:21:57;15.70;;;6.03;;
10645;SDS011;5371;49.782;9.932;2023-03-04T14:24:25;16.33;;;6.00;;
10645;SDS011;5371;49.782;9.932;2023-03-04T14:27:09;14.57;;;5.90;;
10645;SDS011;5371;49.782;9.932;2023-03-04T14:29:38;13.97;;;5.57;;
10645;SDS011;5371;49.782;9.932;2023-03-04T14:32:06;11.67;;;5.60;;
10645;SDS011;5371;49.782;9.932;2023-03-04T14:34:34;12.77;;;5.93;;
10645;SDS011;5371;49.782;9.932;2023-03-04T14:37:15;13.97;;;6.20;;
10645;SDS011;5371;49.782;9.932;2023-03-04T14:39:47;9.17;;;5.47;;
10645;SDS011;5371;49.782;9.932;2023-03-04T14:42:16;11.77;;;6.10;;
10645;SDS011;5371;49.782;9.932;2023-03-04T14:44:46;11.17;;;5.93;;
10645;SDS011;5371;49.782;9.932;2023-03-04T14:47:16;11.13;;;6.03;;
10645;SDS011;5371;49.782;9.932;2023-03-04T14:49:46;15.90;;;6.17;;
10645;SDS011;5371;49.782;9.932;2023-03-04T14:52:26;12.57;;;6.07;;
10645;SDS011;5371;49.782;9.932;2023-03-04T14:54:59;11.97;;;5.87;;
10645;SDS011;5371;49.782;9.932;2023-03-04T14:57:30;14.57;;;6.90;;
10645;SDS011;5371;49.782;9.932;2023-03-04T15:00:13;13.70;;;6.90;;
10645;SDS011;5371;49.782;9.932;2023-03-04T15:02:42;12.83;;;6.83;;
10645;SDS011;5371;49.782;9.932;2023-03-04T15:05:10;14.27;;;7.23;;
10645;SDS011;5371;49.782;9.932;2023-03-04T15:07:50;14.50;;;7.60;;
10645;SDS011;5371;49.782;9.932;2023-03-04T15:10:20;18.17;;;7.23;;
10645;SDS011;5371;49.782;9.932;2023-03-04T15:12:50;14.93;;;7.33;;
10645;SDS011;5371;49.782;9.932;2023-03-04T15:15:32;13.90;;;7.30;;
10645;SDS011;5371;49.782;9.932;2023-03-04T15:18:16;15.97;;;8.27;;